EGSCEGSS

Guest
Details From EGSC - Cambridge
To EGSS - London Stansted
Flight Number -
Tags Generated
Created
Modified
Stats Distance 20 nm / 37 km
Max Altitude 0 ft / 0 m
Waypoints 2
Social Downloads 1
Likes 0
Share VATSIM

Download

Looking for another format? Having issues loading an existing format? Contact us
Advertisement - Login to hide

Notes

Generated

Route

EGSC EGSS

ID Type Via Altitude Latitude Longitude Leg Dist Tot Dist Heading (true) Name
O EGSC APT - 0 ft / 0 m 52.20326˚ 0.16866˚ - 0 nm - -
O EGSS APT - 0 ft / 0 m 51.87508˚ 0.21993˚ 19 nm 19 nm 174° / 175° -

Altitude Profile

Advertisement - Login to hide

EGSC

Details ICAO EGSC (CBG)
Name Cambridge
Region United Kingdom
Timezone Europe/London (UTC+0.0)
Stats Elevation 47 ft / 14 m (AMSL)
Location 52.204476° 0.176450°
Runways 3
Magnetic Variation 0.418° W

METAR

EGSC 111120Z 03012KT 9999 -RA FEW009 SCT018 03/01 Q0983

Decode

TAF

Not found

Departure Runways

ID Width Length Bearing (true) Bearing (mag) Surface Threshold Offset Overrun Length
05 151 ft / 46 m 6,417 ft / 1,956 m 49.79° 50.21° Asphalt 692 ft / 211 m 0 ft / 0 m
05R 115 ft / 35 m 2,947 ft / 898 m 49.84° 50.26° Grass 0 ft / 0 m 0 ft / 0 m
10 115 ft / 35 m 2,290 ft / 698 m 99.91° 100.33° Grass 0 ft / 0 m 0 ft / 0 m
23 151 ft / 46 m 6,417 ft / 1,956 m 229.81° 230.23° Asphalt 469 ft / 143 m 0 ft / 0 m
23L 115 ft / 35 m 2,947 ft / 898 m 229.85° 230.27° Grass 0 ft / 0 m 0 ft / 0 m
28 115 ft / 35 m 2,290 ft / 698 m 279.91° 280.33° Grass 0 ft / 0 m 0 ft / 0 m

EGSS

Details ICAO EGSS (STN)
Name London Stansted
Region United Kingdom
Timezone Europe/London (UTC+0.0)
Stats Elevation 348 ft / 106 m (AMSL)
Location 51.885097° 0.234962°
Runways 1
Magnetic Variation 0.364° W

METAR

EGSS 111120Z 02013G23KT 4400 SN OVC005 01/00 Q0982 RESN

Decode

TAF

TAF EGSS 110504Z 1106/1212 03014KT 9999 FEW002 TEMPO 1106/1114 5000 BR BKN002 PROB30 TEMPO 1106/1108 0300 FG FZFG BKN001 PROB30 TEMPO 1108/1112 02015G25KT 0800 SN BKN001 BECMG 1112/1115 33012KT BECMG 1200/1203 27008KT PROB30 1206/1212 2000 BR BKN002

Decode

Destination Runways

ID Width Length Bearing (true) Bearing (mag) Surface Threshold Offset Overrun Length
04 151 ft / 46 m 10,011 ft / 3,052 m 42.79° 43.15° Asphalt 994 ft / 303 m 0 ft / 0 m
22 151 ft / 46 m 10,011 ft / 3,052 m 222.81° 223.17° Asphalt 0 ft / 0 m 0 ft / 0 m

Approach Navaids

Runway Type Ident Frequency Range Bearing (true) Bearing (mag) Slope Elevation
04 Localiser ISED 110.50 MHz 18 nm / 33 km 42.80° 43.16° - 348 ft / 106 m (AMSL)
04 Glidescope ISED 110.50 MHz 10 nm / 19 km 42.80° 43.16° 3.00° 348 ft / 106 m (AMSL)
04 DME ISED 110.50 MHz 18 nm / 33 km - - - 348 ft / 106 m (AMSL)
22 Localiser ISX 110.50 MHz 18 nm / 33 km 222.80° 223.16° - 348 ft / 106 m (AMSL)
22 Glidescope ISX 110.50 MHz 10 nm / 19 km 222.80° 223.16° 3.00° 348 ft / 106 m (AMSL)
22 DME ISX 110.50 MHz 18 nm / 33 km - - - 348 ft / 106 m (AMSL)

Popular Alternatives